GTN weather

Glentanner Airport
Glentanner Station, Canterbury Region, New Zealand

Public forecast

Using degrees Celsius for public forecast. Weather courtesy of forecast.io.

METAR (pilot weather report)

Closest report is Christchurch International Airport, 107.3 nm (198.7 km) ENE. Retrieved 2019/05/21 10:00 UTC (8 minutes ago):

NZCH 211000Z AUTO 34004KT 9999 BKN021/// 09/08 Q1021 NOSIG

TAF (pilot weather forecast)

Forecast is more than 12 hours old.

Closest forecast is Queenstown International Airport, 89.5 nm (165.8 km) SW. Retrieved 2019/05/20 18:14 UTC (16 hours ago):

TAF NZQN 201710Z 2018/2112 02005KT 9999 SKC BECMG 2023/2101 26010KT BECMG 2105/2107 VRB02KT